sensor_id;sensor_type;location;lat;lon;timestamp;pressure;altitude;pressure_sealevel;temperature;humidity
21742;BME280;11033;47.490;11.116;2022-10-31T00:01:46;93641.91;;;12.42;65.46
21742;BME280;11033;47.490;11.116;2022-10-31T00:04:11;93643.47;;;12.57;63.25
21742;BME280;11033;47.490;11.116;2022-10-31T00:06:36;93647.00;;;12.64;62.17
21742;BME280;11033;47.490;11.116;2022-10-31T00:09:03;93645.88;;;12.52;63.81
21742;BME280;11033;47.490;11.116;2022-10-31T00:11:29;93643.09;;;12.60;63.02
21742;BME280;11033;47.490;11.116;2022-10-31T00:13:54;93646.00;;;12.65;62.41
21742;BME280;11033;47.490;11.116;2022-10-31T00:16:23;93642.72;;;12.63;62.96
21742;BME280;11033;47.490;11.116;2022-10-31T00:18:50;93648.00;;;12.63;62.97
21742;BME280;11033;47.490;11.116;2022-10-31T00:21:15;93641.47;;;12.59;63.18
21742;BME280;11033;47.490;11.116;2022-10-31T00:23:41;93645.63;;;12.47;64.55
21742;BME280;11033;47.490;11.116;2022-10-31T00:26:06;93644.81;;;12.47;63.02
21742;BME280;11033;47.490;11.116;2022-10-31T00:28:32;93651.91;;;12.46;63.61
21742;BME280;11033;47.490;11.116;2022-10-31T00:31:01;93650.34;;;12.52;63.01
21742;BME280;11033;47.490;11.116;2022-10-31T00:33:27;93643.88;;;12.54;62.13
21742;BME280;11033;47.490;11.116;2022-10-31T00:35:53;93643.13;;;12.39;65.25
21742;BME280;11033;47.490;11.116;2022-10-31T00:38:18;93647.75;;;12.37;64.84
21742;BME280;11033;47.490;11.116;2022-10-31T00:40:44;93649.41;;;12.38;64.52
21742;BME280;11033;47.490;11.116;2022-10-31T00:43:09;93645.00;;;12.45;63.36
21742;BME280;11033;47.490;11.116;2022-10-31T00:45:34;93640.28;;;12.41;64.29
21742;BME280;11033;47.490;11.116;2022-10-31T00:47:59;93650.13;;;12.32;63.53
21742;BME280;11033;47.490;11.116;2022-10-31T00:50:25;93649.22;;;12.40;63.66
21742;BME280;11033;47.490;11.116;2022-10-31T00:52:50;93654.06;;;12.36;63.93
21742;BME280;11033;47.490;11.116;2022-10-31T00:55:15;93649.88;;;12.27;64.84
21742;BME280;11033;47.490;11.116;2022-10-31T00:57:41;93647.81;;;12.44;62.17
21742;BME280;11033;47.490;11.116;2022-10-31T01:00:06;93643.78;;;12.26;63.69
21742;BME280;11033;47.490;11.116;2022-10-31T01:02:32;93649.75;;;12.35;62.79
21742;BME280;11033;47.490;11.116;2022-10-31T01:04:57;93646.75;;;12.38;62.95
21742;BME280;11033;47.490;11.116;2022-10-31T01:07:22;93650.31;;;12.30;63.79
21742;BME280;11033;47.490;11.116;2022-10-31T01:09:48;93649.41;;;12.38;62.89
21742;BME280;11033;47.490;11.116;2022-10-31T01:12:13;93645.22;;;12.29;62.68
21742;BME280;11033;47.490;11.116;2022-10-31T01:14:42;93640.75;;;12.29;62.68
21742;BME280;11033;47.490;11.116;2022-10-31T01:17:08;93643.00;;;12.32;63.39
21742;BME280;11033;47.490;11.116;2022-10-31T01:19:33;93640.25;;;12.19;63.17
21742;BME280;11033;47.490;11.116;2022-10-31T01:21:58;93642.44;;;12.16;63.32
21742;BME280;11033;47.490;11.116;2022-10-31T01:24:23;93646.91;;;12.15;62.98
21742;BME280;11033;47.490;11.116;2022-10-31T01:26:49;93649.09;;;12.12;64.02
21742;BME280;11033;47.490;11.116;2022-10-31T01:29:14;93652.63;;;12.19;62.63
21742;BME280;11033;47.490;11.116;2022-10-31T01:31:39;93644.19;;;12.09;63.90
21742;BME280;11033;47.490;11.116;2022-10-31T01:34:05;93645.44;;;12.13;62.92
21742;BME280;11033;47.490;11.116;2022-10-31T01:36:34;93650.75;;;12.13;62.97
21742;BME280;11033;47.490;11.116;2022-10-31T01:39:03;93661.22;;;12.06;64.01
21742;BME280;11033;47.490;11.116;2022-10-31T01:41:31;93645.97;;;12.23;62.78
21742;BME280;11033;47.490;11.116;2022-10-31T01:46:41;93649.91;;;12.12;63.06
21742;BME280;11033;47.490;11.116;2022-10-31T01:49:16;93643.75;;;12.05;64.16
21742;BME280;11033;47.490;11.116;2022-10-31T01:51:47;93648.78;;;12.00;63.28
21742;BME280;11033;47.490;11.116;2022-10-31T01:54:17;93646.06;;;11.93;65.29
21742;BME280;11033;47.490;11.116;2022-10-31T01:56:49;93647.31;;;11.97;63.48
21742;BME280;11033;47.490;11.116;2022-10-31T01:59:17;93640.97;;;11.92;64.17
21742;BME280;11033;47.490;11.116;2022-10-31T02:01:44;93647.91;;;11.78;66.14
21742;BME280;11033;47.490;11.116;2022-10-31T02:04:11;93643.91;;;11.82;66.33
21742;BME280;11033;47.490;11.116;2022-10-31T02:06:44;93636.31;;;11.94;63.31
21742;BME280;11033;47.490;11.116;2022-10-31T02:09:12;93649.19;;;11.82;65.71
21742;BME280;11033;47.490;11.116;2022-10-31T02:11:40;93645.59;;;11.90;63.61
21742;BME280;11033;47.490;11.116;2022-10-31T02:14:06;93643.31;;;12.01;63.44
21742;BME280;11033;47.490;11.116;2022-10-31T02:16:31;93646.56;;;12.03;63.17
21742;BME280;11033;47.490;11.116;2022-10-31T02:18:57;93646.25;;;11.92;63.99
21742;BME280;11033;47.490;11.116;2022-10-31T02:21:34;93636.59;;;11.84;64.01
21742;BME280;11033;47.490;11.116;2022-10-31T02:27:21;93636.38;;;12.00;62.38
21742;BME280;11033;47.490;11.116;2022-10-31T02:33:23;93650.59;;;11.70;64.14
21742;BME280;11033;47.490;11.116;2022-10-31T02:46:48;93648.88;;;11.77;62.97
21742;BME280;11033;47.490;11.116;2022-10-31T02:49:27;93652.25;;;11.71;63.59
21742;BME280;11033;47.490;11.116;2022-10-31T02:51:53;93646.25;;;11.77;64.19
21742;BME280;11033;47.490;11.116;2022-10-31T02:54:24;93644.97;;;11.73;63.44
21742;BME280;11033;47.490;11.116;2022-10-31T02:56:57;93639.69;;;11.73;63.81
21742;BME280;11033;47.490;11.116;2022-10-31T02:59:23;93639.31;;;11.76;63.31
21742;BME280;11033;47.490;11.116;2022-10-31T03:02:02;93646.41;;;11.61;64.07
21742;BME280;11033;47.490;11.116;2022-10-31T03:04:45;93650.69;;;11.62;62.95
21742;BME280;11033;47.490;11.116;2022-10-31T03:07:23;93645.69;;;11.67;62.92
21742;BME280;11033;47.490;11.116;2022-10-31T03:10:03;93642.66;;;11.70;63.53
21742;BME280;11033;47.490;11.116;2022-10-31T03:12:38;93637.88;;;11.59;64.17
21742;BME280;11033;47.490;11.116;2022-10-31T03:15:33;93640.78;;;11.49;63.68
21742;BME280;11033;47.490;11.116;2022-10-31T03:18:37;93641.97;;;11.47;63.70
21742;BME280;11033;47.490;11.116;2022-10-31T03:21:11;93645.50;;;11.54;63.61
21742;BME280;11033;47.490;11.116;2022-10-31T03:23:39;93626.03;;;11.55;64.62
21742;BME280;11033;47.490;11.116;2022-10-31T03:26:07;93636.78;;;11.38;64.27
21742;BME280;11033;47.490;11.116;2022-10-31T03:28:38;93643.69;;;11.39;63.69
21742;BME280;11033;47.490;11.116;2022-10-31T03:31:05;93642.16;;;11.45;64.32
21742;BME280;11033;47.490;11.116;2022-10-31T03:33:34;93639.34;;;11.47;64.06
21742;BME280;11033;47.490;11.116;2022-10-31T03:36:03;93635.78;;;11.39;63.81
21742;BME280;11033;47.490;11.116;2022-10-31T03:38:31;93641.72;;;11.41;64.31
21742;BME280;11033;47.490;11.116;2022-10-31T03:40:58;93637.72;;;11.31;64.55
21742;BME280;11033;47.490;11.116;2022-10-31T03:43:30;93645.97;;;11.28;64.58
21742;BME280;11033;47.490;11.116;2022-10-31T03:45:57;93649.72;;;11.33;65.08
21742;BME280;11033;47.490;11.116;2022-10-31T03:48:23;93642.72;;;11.26;64.39
21742;BME280;11033;47.490;11.116;2022-10-31T03:51:15;93653.63;;;11.23;65.65
21742;BME280;11033;47.490;11.116;2022-10-31T03:56:51;93646.63;;;11.15;64.89
21742;BME280;11033;47.490;11.116;2022-10-31T04:01:51;93646.44;;;11.17;66.20
21742;BME280;11033;47.490;11.116;2022-10-31T04:04:18;93647.97;;;11.11;65.56
21742;BME280;11033;47.490;11.116;2022-10-31T04:06:45;93645.44;;;11.18;64.40
21742;BME280;11033;47.490;11.116;2022-10-31T04:09:11;93646.72;;;11.22;64.89
21742;BME280;11033;47.490;11.116;2022-10-31T04:11:43;93637.25;;;11.13;64.61
21742;BME280;11033;47.490;11.116;2022-10-31T04:14:11;93642.56;;;10.90;66.67
21742;BME280;11033;47.490;11.116;2022-10-31T04:16:38;93635.66;;;10.89;67.32
21742;BME280;11033;47.490;11.116;2022-10-31T04:19:04;93640.22;;;10.95;66.15
21742;BME280;11033;47.490;11.116;2022-10-31T04:21:30;93635.50;;;11.05;nan
21742;BME280;11033;47.490;11.116;2022-10-31T04:23:56;93639.84;;;10.98;65.42
21742;BME280;11033;47.490;11.116;2022-10-31T04:26:21;93638.56;;;10.94;65.44
21742;BME280;11033;47.490;11.116;2022-10-31T04:28:47;93638.47;;;11.02;66.30
21742;BME280;11033;47.490;11.116;2022-10-31T04:31:13;93632.75;;;10.84;66.91
21742;BME280;11033;47.490;11.116;2022-10-31T04:33:38;93638.94;;;10.91;65.34
21742;BME280;11033;47.490;11.116;2022-10-31T04:36:04;93635.28;;;10.92;65.54
21742;BME280;11033;47.490;11.116;2022-10-31T04:38:30;93633.56;;;10.99;65.63
21742;BME280;11033;47.490;11.116;2022-10-31T04:40:55;93636.22;;;10.99;64.85
21742;BME280;11033;47.490;11.116;2022-10-31T04:43:20;93640.38;;;10.93;65.50
21742;BME280;11033;47.490;11.116;2022-10-31T04:45:46;93639.94;;;10.90;66.76
21742;BME280;11033;47.490;11.116;2022-10-31T04:48:11;93639.66;;;10.85;67.34
21742;BME280;11033;47.490;11.116;2022-10-31T04:50:36;93632.94;;;10.97;65.89
21742;BME280;11033;47.490;11.116;2022-10-31T04:53:02;93633.09;;;10.80;67.65
21742;BME280;11033;47.490;11.116;2022-10-31T04:55:27;93625.56;;;10.77;68.09
21742;BME280;11033;47.490;11.116;2022-10-31T04:57:52;93631.47;;;10.79;66.64
21742;BME280;11033;47.490;11.116;2022-10-31T05:00:19;93625.47;;;10.86;66.52
21742;BME280;11033;47.490;11.116;2022-10-31T05:02:45;93626.38;;;10.93;65.82
21742;BME280;11033;47.490;11.116;2022-10-31T05:05:12;93618.91;;;10.82;66.59
21742;BME280;11033;47.490;11.116;2022-10-31T05:07:42;93626.53;;;10.76;67.37
21742;BME280;11033;47.490;11.116;2022-10-31T05:10:10;93627.81;;;10.80;66.54
21742;BME280;11033;47.490;11.116;2022-10-31T05:12:35;93622.03;;;10.85;65.78
21742;BME280;11033;47.490;11.116;2022-10-31T05:15:01;93624.47;;;10.87;65.20
21742;BME280;11033;47.490;11.116;2022-10-31T05:17:26;93622.91;;;10.77;66.46
21742;BME280;11033;47.490;11.116;2022-10-31T05:19:51;93623.38;;;10.81;67.35
21742;BME280;11033;47.490;11.116;2022-10-31T05:22:17;93620.34;;;10.69;66.83
21742;BME280;11033;47.490;11.116;2022-10-31T05:24:42;93619.19;;;10.72;66.17
21742;BME280;11033;47.490;11.116;2022-10-31T05:27:07;93626.81;;;10.67;66.43
21742;BME280;11033;47.490;11.116;2022-10-31T05:29:32;93615.28;;;10.83;65.35
21742;BME280;11033;47.490;11.116;2022-10-31T05:31:59;93610.56;;;10.78;65.94
21742;BME280;11033;47.490;11.116;2022-10-31T05:34:24;93609.28;;;10.74;66.22
21742;BME280;11033;47.490;11.116;2022-10-31T05:36:49;93613.91;;;10.72;65.95
21742;BME280;11033;47.490;11.116;2022-10-31T05:39:15;93615.44;;;10.66;66.22
21742;BME280;11033;47.490;11.116;2022-10-31T05:41:40;93608.28;;;10.75;64.65
21742;BME280;11033;47.490;11.116;2022-10-31T05:44:05;93615.91;;;10.70;65.05
21742;BME280;11033;47.490;11.116;2022-10-31T05:46:31;93597.63;;;10.68;65.87
21742;BME280;11033;47.490;11.116;2022-10-31T05:48:56;93605.66;;;10.75;66.86
21742;BME280;11033;47.490;11.116;2022-10-31T05:51:21;93604.72;;;10.68;64.97
21742;BME280;11033;47.490;11.116;2022-10-31T05:53:46;93599.00;;;10.64;64.98
21742;BME280;11033;47.490;11.116;2022-10-31T05:56:12;93604.63;;;10.61;66.72
21742;BME280;11033;47.490;11.116;2022-10-31T05:58:38;93608.53;;;10.65;65.69
21742;BME280;11033;47.490;11.116;2022-10-31T06:01:03;93610.78;;;10.54;66.98
21742;BME280;11033;47.490;11.116;2022-10-31T06:03:28;93617.44;;;10.64;66.49
21742;BME280;11033;47.490;11.116;2022-10-31T06:05:54;93610.97;;;10.52;67.84
21742;BME280;11033;47.490;11.116;2022-10-31T06:08:19;93604.16;;;10.58;66.61
21742;BME280;11033;47.490;11.116;2022-10-31T06:10:44;93612.72;;;10.60;66.33
21742;BME280;11033;47.490;11.116;2022-10-31T06:13:09;93616.88;;;10.54;67.12
21742;BME280;11033;47.490;11.116;2022-10-31T06:15:35;93612.81;;;10.66;67.19
21742;BME280;11033;47.490;11.116;2022-10-31T06:18:04;93609.63;;;10.56;67.53
21742;BME280;11033;47.490;11.116;2022-10-31T06:20:31;93608.25;;;10.60;67.08
21742;BME280;11033;47.490;11.116;2022-10-31T06:22:56;93610.53;;;10.63;65.77
21742;BME280;11033;47.490;11.116;2022-10-31T06:25:22;93613.38;;;10.76;66.04
21742;BME280;11033;47.490;11.116;2022-10-31T06:27:47;93603.63;;;10.62;66.18
21742;BME280;11033;47.490;11.116;2022-10-31T06:30:12;93602.44;;;10.65;66.40
21742;BME280;11033;47.490;11.116;2022-10-31T06:32:38;93603.63;;;10.62;65.61
21742;BME280;11033;47.490;11.116;2022-10-31T06:35:03;93598.72;;;10.59;66.51
21742;BME280;11033;47.490;11.116;2022-10-31T06:37:29;93606.81;;;10.58;67.02
21742;BME280;11033;47.490;11.116;2022-10-31T06:39:54;93592.72;;;10.65;66.19
21742;BME280;11033;47.490;11.116;2022-10-31T06:42:19;93597.72;;;10.60;67.68
21742;BME280;11033;47.490;11.116;2022-10-31T06:44:44;93596.38;;;10.64;67.06
21742;BME280;11033;47.490;11.116;2022-10-31T06:47:10;93603.84;;;10.75;66.58
21742;BME280;11033;47.490;11.116;2022-10-31T06:49:35;93597.19;;;10.79;66.10
21742;BME280;11033;47.490;11.116;2022-10-31T06:52:00;93600.47;;;10.82;66.21
21742;BME280;11033;47.490;11.116;2022-10-31T06:54:26;93595.56;;;10.78;66.86
21742;BME280;11033;47.490;11.116;2022-10-31T06:56:51;93604.09;;;10.80;65.88
21742;BME280;11033;47.490;11.116;2022-10-31T06:59:16;93597.84;;;10.82;66.93
21742;BME280;11033;47.490;11.116;2022-10-31T07:01:42;93609.03;;;10.84;66.45
21742;BME280;11033;47.490;11.116;2022-10-31T07:04:09;93603.31;;;10.95;66.80
21742;BME280;11033;47.490;11.116;2022-10-31T07:06:35;93600.50;;;10.96;65.69
21742;BME280;11033;47.490;11.116;2022-10-31T07:09:00;93599.75;;;11.02;66.50
21742;BME280;11033;47.490;11.116;2022-10-31T07:11:25;93603.97;;;11.11;65.17
21742;BME280;11033;47.490;11.116;2022-10-31T07:13:51;93601.25;;;11.20;64.34
21742;BME280;11033;47.490;11.116;2022-10-31T07:16:16;93606.25;;;11.29;64.30
21742;BME280;11033;47.490;11.116;2022-10-31T07:18:41;93603.88;;;11.34;63.71
21742;BME280;11033;47.490;11.116;2022-10-31T07:21:06;93601.50;;;11.39;64.82
21742;BME280;11033;47.490;11.116;2022-10-31T07:23:32;93612.94;;;11.47;64.24
21742;BME280;11033;47.490;11.116;2022-10-31T07:25:58;93599.84;;;11.53;62.56
21742;BME280;11033;47.490;11.116;2022-10-31T07:28:24;93595.66;;;11.59;63.38
21742;BME280;11033;47.490;11.116;2022-10-31T07:30:54;93597.91;;;11.62;63.44
21742;BME280;11033;47.490;11.116;2022-10-31T07:33:20;93604.75;;;11.71;64.05
21742;BME280;11033;47.490;11.116;2022-10-31T07:35:45;93595.13;;;11.78;64.42
21742;BME280;11033;47.490;11.116;2022-10-31T07:38:12;93603.31;;;11.83;63.91
21742;BME280;11033;47.490;11.116;2022-10-31T07:40:39;93596.91;;;11.92;63.17
21742;BME280;11033;47.490;11.116;2022-10-31T07:43:05;93593.31;;;12.00;61.99
21742;BME280;11033;47.490;11.116;2022-10-31T07:45:30;93595.41;;;12.04;62.11
21742;BME280;11033;47.490;11.116;2022-10-31T07:47:56;93592.44;;;12.14;62.32
21742;BME280;11033;47.490;11.116;2022-10-31T07:50:27;93589.88;;;12.21;62.38
21742;BME280;11033;47.490;11.116;2022-10-31T07:53:07;93586.09;;;12.30;61.50
21742;BME280;11033;47.490;11.116;2022-10-31T07:55:32;93584.38;;;12.37;62.45
21742;BME280;11033;47.490;11.116;2022-10-31T07:58:04;93582.59;;;12.44;62.63
21742;BME280;11033;47.490;11.116;2022-10-31T08:00:31;93585.53;;;12.56;62.88
21742;BME280;11033;47.490;11.116;2022-10-31T08:03:01;93583.38;;;12.66;61.09
21742;BME280;11033;47.490;11.116;2022-10-31T08:05:27;93584.06;;;12.75;60.74
21742;BME280;11033;47.490;11.116;2022-10-31T08:07:52;93586.56;;;12.83;61.17
21742;BME280;11033;47.490;11.116;2022-10-31T08:10:17;93574.81;;;12.92;61.13
21742;BME280;11033;47.490;11.116;2022-10-31T08:12:43;93575.94;;;13.04;60.59
21742;BME280;11033;47.490;11.116;2022-10-31T08:15:08;93576.03;;;13.17;60.00
21742;BME280;11033;47.490;11.116;2022-10-31T08:17:37;93573.09;;;13.33;61.21
21742;BME280;11033;47.490;11.116;2022-10-31T08:20:04;93561.75;;;13.53;60.43
21742;BME280;11033;47.490;11.116;2022-10-31T08:22:30;93556.19;;;13.76;59.31
21742;BME280;11033;47.490;11.116;2022-10-31T08:24:55;93556.44;;;14.01;59.04
21742;BME280;11033;47.490;11.116;2022-10-31T08:27:20;93550.56;;;14.25;59.43
21742;BME280;11033;47.490;11.116;2022-10-31T08:29:46;93550.63;;;14.71;58.47
21742;BME280;11033;47.490;11.116;2022-10-31T08:32:11;93545.94;;;15.06;57.10
21742;BME280;11033;47.490;11.116;2022-10-31T08:34:36;93530.78;;;15.27;56.20
21742;BME280;11033;47.490;11.116;2022-10-31T08:37:02;93527.50;;;15.25;56.97
21742;BME280;11033;47.490;11.116;2022-10-31T08:39:27;93531.97;;;15.37;56.65
21742;BME280;11033;47.490;11.116;2022-10-31T08:41:53;93525.72;;;15.76;56.43
21742;BME280;11033;47.490;11.116;2022-10-31T08:44:18;93529.31;;;15.95;55.45
21742;BME280;11033;47.490;11.116;2022-10-31T08:46:44;93522.84;;;16.16;53.94
21742;BME280;11033;47.490;11.116;2022-10-31T08:49:09;93524.91;;;16.45;54.50
21742;BME280;11033;47.490;11.116;2022-10-31T08:51:34;93527.09;;;16.80;53.72
21742;BME280;11033;47.490;11.116;2022-10-31T08:54:00;93525.63;;;17.09;53.27
21742;BME280;11033;47.490;11.116;2022-10-31T08:56:25;93526.88;;;17.06;52.62
21742;BME280;11033;47.490;11.116;2022-10-31T08:58:52;93522.91;;;17.16;51.47
21742;BME280;11033;47.490;11.116;2022-10-31T09:01:18;93520.47;;;17.32;52.42
21742;BME280;11033;47.490;11.116;2022-10-31T09:03:43;93521.88;;;17.53;52.28
21742;BME280;11033;47.490;11.116;2022-10-31T09:06:09;93517.31;;;17.79;52.72
21742;BME280;11033;47.490;11.116;2022-10-31T09:08:35;93526.56;;;17.76;51.46
21742;BME280;11033;47.490;11.116;2022-10-31T09:11:00;93526.19;;;17.72;52.24
21742;BME280;11033;47.490;11.116;2022-10-31T09:13:26;93516.28;;;17.80;51.25
21742;BME280;11033;47.490;11.116;2022-10-31T09:15:52;93510.31;;;17.96;51.49
21742;BME280;11033;47.490;11.116;2022-10-31T09:18:19;93507.47;;;18.09;52.13
21742;BME280;11033;47.490;11.116;2022-10-31T09:20:46;93504.44;;;18.35;52.57
21742;BME280;11033;47.490;11.116;2022-10-31T09:23:14;93507.00;;;18.42;53.35
21742;BME280;11033;47.490;11.116;2022-10-31T09:25:40;93510.22;;;18.32;53.06
21742;BME280;11033;47.490;11.116;2022-10-31T09:28:07;93500.28;;;18.51;51.67
21742;BME280;11033;47.490;11.116;2022-10-31T09:30:34;93501.19;;;18.33;51.75
21742;BME280;11033;47.490;11.116;2022-10-31T09:33:02;93502.38;;;18.49;51.34
21742;BME280;11033;47.490;11.116;2022-10-31T09:35:28;93498.25;;;18.65;51.78
21742;BME280;11033;47.490;11.116;2022-10-31T09:40:21;93487.25;;;18.85;52.14
21742;BME280;11033;47.490;11.116;2022-10-31T09:43:04;93479.94;;;19.04;51.65
21742;BME280;11033;47.490;11.116;2022-10-31T09:45:39;93493.06;;;19.17;51.66
21742;BME280;11033;47.490;11.116;2022-10-31T09:51:09;93481.06;;;19.66;51.25
21742;BME280;11033;47.490;11.116;2022-10-31T09:54:03;93475.53;;;20.58;49.04
21742;BME280;11033;47.490;11.116;2022-10-31T09:56:31;93480.03;;;21.58;48.76
21742;BME280;11033;47.490;11.116;2022-10-31T09:58:58;93470.94;;;22.57;46.51
21742;BME280;11033;47.490;11.116;2022-10-31T10:04:01;93461.69;;;23.49;41.94
21742;BME280;11033;47.490;11.116;2022-10-31T10:06:29;93454.03;;;24.76;43.59
21742;BME280;11033;47.490;11.116;2022-10-31T10:08:57;93456.16;;;25.45;43.15
21742;BME280;11033;47.490;11.116;2022-10-31T10:19:43;93441.78;;;27.70;35.87
21742;BME280;11033;47.490;11.116;2022-10-31T10:30:40;93422.41;;;28.67;34.72
21742;BME280;11033;47.490;11.116;2022-10-31T10:33:31;93420.94;;;27.71;33.98
21742;BME280;11033;47.490;11.116;2022-10-31T10:36:08;93413.06;;;28.17;35.41
21742;BME280;11033;47.490;11.116;2022-10-31T10:41:24;93407.00;;;29.14;31.17
21742;BME280;11033;47.490;11.116;2022-10-31T10:43:52;93410.31;;;29.85;33.23
21742;BME280;11033;47.490;11.116;2022-10-31T10:49:36;93402.25;;;30.35;33.41
21742;BME280;11033;47.490;11.116;2022-10-31T10:57:54;93393.31;;;30.20;31.24
21742;BME280;11033;47.490;11.116;2022-10-31T11:02:48;93390.91;;;30.19;31.49
21742;BME280;11033;47.490;11.116;2022-10-31T11:08:00;93384.19;;;29.61;29.06
21742;BME280;11033;47.490;11.116;2022-10-31T11:10:26;93382.41;;;30.34;31.74
21742;BME280;11033;47.490;11.116;2022-10-31T11:15:47;93372.09;;;29.95;29.88
21742;BME280;11033;47.490;11.116;2022-10-31T11:18:20;93373.22;;;29.20;29.84
21742;BME280;11033;47.490;11.116;2022-10-31T11:20:52;93366.41;;;28.20;29.90
21742;BME280;11033;47.490;11.116;2022-10-31T11:23:20;93371.47;;;29.84;29.50
21742;BME280;11033;47.490;11.116;2022-10-31T11:25:57;93362.53;;;29.43;29.34
21742;BME280;11033;47.490;11.116;2022-10-31T11:28:23;93364.44;;;29.70;31.15
21742;BME280;11033;47.490;11.116;2022-10-31T11:30:53;93354.03;;;29.17;30.65
21742;BME280;11033;47.490;11.116;2022-10-31T11:33:36;93357.03;;;30.03;32.16
21742;BME280;11033;47.490;11.116;2022-10-31T11:36:14;93366.63;;;30.22;32.08
21742;BME280;11033;47.490;11.116;2022-10-31T11:38:42;93351.03;;;30.50;29.90
21742;BME280;11033;47.490;11.116;2022-10-31T11:41:26;93344.44;;;32.89;30.31
21742;BME280;11033;47.490;11.116;2022-10-31T11:43:59;93347.56;;;34.40;27.50
21742;BME280;11033;47.490;11.116;2022-10-31T11:46:33;93345.75;;;35.40;26.13
21742;BME280;11033;47.490;11.116;2022-10-31T11:48:59;93340.41;;;34.27;26.83
21742;BME280;11033;47.490;11.116;2022-10-31T11:51:30;93342.63;;;36.88;26.32
21742;BME280;11033;47.490;11.116;2022-10-31T11:53:58;93337.94;;;38.07;25.20
21742;BME280;11033;47.490;11.116;2022-10-31T11:56:24;93340.75;;;38.77;23.27
21742;BME280;11033;47.490;11.116;2022-10-31T11:58:58;93339.16;;;38.95;24.18
21742;BME280;11033;47.490;11.116;2022-10-31T12:01:31;93340.13;;;39.65;21.96
21742;BME280;11033;47.490;11.116;2022-10-31T12:04:09;93332.06;;;39.75;20.27
21742;BME280;11033;47.490;11.116;2022-10-31T12:06:39;93324.75;;;42.44;21.72
21742;BME280;11033;47.490;11.116;2022-10-31T12:09:23;93319.81;;;42.20;16.60
21742;BME280;11033;47.490;11.116;2022-10-31T12:15:36;93310.59;;;44.82;16.03
21742;BME280;11033;47.490;11.116;2022-10-31T12:26:08;93301.94;;;46.64;18.30
21742;BME280;11033;47.490;11.116;2022-10-31T12:31:50;93294.50;;;46.54;16.60
21742;BME280;11033;47.490;11.116;2022-10-31T12:37:23;93284.69;;;46.35;15.19
21742;BME280;11033;47.490;11.116;2022-10-31T12:42:51;93273.66;;;44.85;16.16
21742;BME280;11033;47.490;11.116;2022-10-31T12:45:28;93276.41;;;43.21;14.07
21742;BME280;11033;47.490;11.116;2022-10-31T12:50:43;93268.97;;;45.62;13.41
21742;BME280;11033;47.490;11.116;2022-10-31T12:53:58;93268.25;;;46.48;14.12
21742;BME280;11033;47.490;11.116;2022-10-31T12:59:06;93259.53;;;47.44;13.78
21742;BME280;11033;47.490;11.116;2022-10-31T13:01:38;93258.22;;;46.91;14.07
21742;BME280;11033;47.490;11.116;2022-10-31T13:04:14;93250.53;;;48.80;14.23
21742;BME280;11033;47.490;11.116;2022-10-31T13:06:44;93245.31;;;47.35;13.54
21742;BME280;11033;47.490;11.116;2022-10-31T13:09:17;93228.03;;;43.15;14.45
21742;BME280;11033;47.490;11.116;2022-10-31T13:11:52;93226.22;;;42.54;14.44
21742;BME280;11033;47.490;11.116;2022-10-31T13:14:32;93229.13;;;46.55;14.59
21742;BME280;11033;47.490;11.116;2022-10-31T13:17:00;93232.56;;;48.11;15.01
21742;BME280;11033;47.490;11.116;2022-10-31T13:19:31;93217.06;;;45.24;14.32
21742;BME280;11033;47.490;11.116;2022-10-31T13:22:08;93223.69;;;46.78;13.16
21742;BME280;11033;47.490;11.116;2022-10-31T13:24:50;93226.47;;;47.70;13.92
21742;BME280;11033;47.490;11.116;2022-10-31T13:27:22;93229.03;;;48.54;15.33
21742;BME280;11033;47.490;11.116;2022-10-31T13:30:02;93223.69;;;46.44;14.46
21742;BME280;11033;47.490;11.116;2022-10-31T13:32:38;93228.81;;;47.98;13.55
21742;BME280;11033;47.490;11.116;2022-10-31T13:35:14;93228.97;;;48.77;15.69
21742;BME280;11033;47.490;11.116;2022-10-31T13:37:51;93232.56;;;49.37;13.39
21742;BME280;11033;47.490;11.116;2022-10-31T13:40:41;93229.03;;;48.54;14.05
21742;BME280;11033;47.490;11.116;2022-10-31T13:45:50;93227.16;;;48.91;13.98
21742;BME280;11033;47.490;11.116;2022-10-31T13:50:54;93223.56;;;46.55;16.40
21742;BME280;11033;47.490;11.116;2022-10-31T13:53:21;93210.66;;;44.25;16.29
21742;BME280;11033;47.490;11.116;2022-10-31T13:55:49;93209.41;;;42.25;17.30
21742;BME280;11033;47.490;11.116;2022-10-31T13:58:26;93209.59;;;42.54;16.87
21742;BME280;11033;47.490;11.116;2022-10-31T14:03:40;93201.88;;;39.24;18.35
21742;BME280;11033;47.490;11.116;2022-10-31T14:06:07;93195.81;;;37.48;21.21
21742;BME280;11033;47.490;11.116;2022-10-31T14:08:35;93199.91;;;36.23;21.60
21742;BME280;11033;47.490;11.116;2022-10-31T14:11:02;93203.47;;;35.35;21.97
21742;BME280;11033;47.490;11.116;2022-10-31T14:13:32;93211.34;;;34.04;22.61
21742;BME280;11033;47.490;11.116;2022-10-31T14:16:04;93197.47;;;32.27;23.40
21742;BME280;11033;47.490;11.116;2022-10-31T14:18:38;93193.66;;;32.84;23.93
21742;BME280;11033;47.490;11.116;2022-10-31T14:23:48;93196.16;;;30.68;26.68
21742;BME280;11033;47.490;11.116;2022-10-31T14:28:49;93202.59;;;30.05;27.90
21742;BME280;11033;47.490;11.116;2022-10-31T14:33:59;93198.81;;;29.42;28.71
21742;BME280;11033;47.490;11.116;2022-10-31T14:41:55;93197.88;;;27.48;32.76
21742;BME280;11033;47.490;11.116;2022-10-31T14:47:13;93198.97;;;27.04;33.20
21742;BME280;11033;47.490;11.116;2022-10-31T14:49:51;93198.22;;;26.51;33.45
21742;BME280;11033;47.490;11.116;2022-10-31T14:52:23;93201.25;;;25.81;35.65
21742;BME280;11033;47.490;11.116;2022-10-31T14:54:52;93196.63;;;26.98;35.00
21742;BME280;11033;47.490;11.116;2022-10-31T14:57:24;93196.56;;;30.08;31.39
21742;BME280;11033;47.490;11.116;2022-10-31T15:00:06;93191.28;;;31.35;28.54